Athol, MA

7:05 AM EDT on November 01, 2014 (GMT -0400)
Maggies Farm | Change Station
CLOSE
Current Station
Personal Weather Station
Location: Orange, MA
Elevation: 850 ft
Nearby Weather Stations

Elev 850 ft 42.62 °N, 72.25 °W | Updated 7 seconds ago

Overcast
Overcast
39.9 °F
Feels Like 40 °F
N
0.2
Wind Variable Wind from North
Gusts 2.5 mph

Today
High -- | Low -- °F
--% Chance of Precip.
Yesterday
High -- | Low -- °F
Precip. -- in
7:22 AM 5:41 PM
Waxing Gibbous, 65% visible
Pressure 29.93 in
Visibility 10.0 miles
Clouds Few 9500 ft
Windchill 40 °F
Dew Point 31 °F
Humidity 71%
Rainfall 0.00 in
Snow Depth Not available.
UV 0 out of 12
Pollen .20 out of 12
Air Quality Not available.
Flu Activity Not available.
METAR KORE 011052Z AUTO 03004KT 10SM FEW095 06/M01 A2992 RMK AO2 SLP135 T00561006

More Conditions Fewer Conditions

Pressure 29.93 in
Visibility 10.0 miles
Clouds Few 9500 ft
Windchill 40 °F
Dew Point 31 °F
Humidity 71%
Rainfall 0.00 in
Snow Depth Not available.
UV 0 out of 12
Pollen .20 out of 12
Air Quality Not available.
Flu Activity Not available.
METAR KORE 011052Z AUTO 03004KT 10SM FEW095 06/M01 A2992 RMK AO2 SLP135 T00561006

More Conditions Fewer Conditions

10-Day Weather Forecast

Almanac

Astronomy

Nov. 01, 2014 Rise Set
Actual Time
Civil Twilight
Nautical Twilight
Astronomical Twilight
Moon
Length of Visible Light
Length of Day
Tomorrow will be .
, % of the Moon is Illuminated

Today's Extremes

State Highs State Lows

Community

WunderPhotos

Upload Photos

1,766,878 photos uploaded!

WunderBlogs® & News

Nearby

Air Quality

  Air Quality AQ Index Pollutant
Not available.

Snow Depth

Station Depth Elevation

Earthquake Activity

City Distance Mag. Time & Date
Minimum magnitude displayed is 2.5.

Coastal Water Temperatures

Place Temperature

Nearby Weather Stations